Airport View

Enter AWOS ICAO identifier for current METAR.

ex. KFNL

KNQA 080250Z 27008KT 10SM CLR 27/23 A2994

8 Jul 2020 03:54

Frequency: 118.925

Phone: 901-873-3630

Other Area AWOS: KM04 - KMEM - KAWM - KOLV

TAF AMD KMEM 080301Z 0803/0906 02006KT P6SM FEW060 BKN250 FM080600 19006KT P6SM SCT250 FM081600 22006KT P6SM SCT030 FM082100 18005KT P6SM VCTS SCT030CB BKN050 FM090100 18005KT P6SM SCT050 BKN250